sensor_id;sensor_type;location;lat;lon;timestamp;pressure;altitude;pressure_sealevel;temperature;humidity
67052;BME280;53957;47.222;18.670;2023-06-04T05:38:42;100527.50;;;17.34;61.76
67052;BME280;53957;47.222;18.670;2023-06-04T05:41:45;100521.38;;;17.16;57.83
67052;BME280;53957;47.222;18.670;2023-06-04T05:44:49;100523.44;;;17.11;60.10
67052;BME280;53957;47.222;18.670;2023-06-04T05:47:54;100522.97;;;17.17;59.38
67052;BME280;53957;47.222;18.670;2023-06-04T05:50:57;100523.97;;;15.80;64.99
67052;BME280;53957;47.222;18.670;2023-06-04T05:54:01;100532.94;;;16.73;61.47
67052;BME280;53957;47.222;18.670;2023-06-04T05:57:04;100530.25;;;16.73;62.98
67052;BME280;53957;47.222;18.670;2023-06-04T06:00:08;100536.91;;;17.11;60.63
67052;BME280;53957;47.222;18.670;2023-06-04T06:03:15;100546.34;;;17.43;60.70
67052;BME280;53957;47.222;18.670;2023-06-04T06:06:20;100550.31;;;17.46;53.90
67052;BME280;53957;47.222;18.670;2023-06-04T06:09:23;100553.41;;;16.92;55.56
67052;BME280;53957;47.222;18.670;2023-06-04T06:12:27;100555.34;;;15.84;56.81
67052;BME280;53957;47.222;18.670;2023-06-04T06:15:30;100554.31;;;16.87;51.90
67052;BME280;53957;47.222;18.670;2023-06-04T06:18:36;100553.16;;;15.95;57.01
67052;BME280;53957;47.222;18.670;2023-06-04T06:21:38;100550.22;;;16.05;57.08
67052;BME280;53957;47.222;18.670;2023-06-04T06:24:42;100545.28;;;16.83;53.71
67052;BME280;53957;47.222;18.670;2023-06-04T06:27:45;100552.06;;;16.45;56.51
67052;BME280;53957;47.222;18.670;2023-06-04T06:30:49;100555.44;;;16.68;54.35
67052;BME280;53957;47.222;18.670;2023-06-04T06:33:52;100559.56;;;17.10;52.34
67052;BME280;53957;47.222;18.670;2023-06-04T06:36:55;100562.41;;;16.69;53.08
67052;BME280;53957;47.222;18.670;2023-06-04T06:39:58;100572.63;;;16.32;55.92
67052;BME280;53957;47.222;18.670;2023-06-04T06:43:01;100569.81;;;16.64;57.08
67052;BME280;53957;47.222;18.670;2023-06-04T06:46:03;100585.69;;;16.74;55.75
67052;BME280;53957;47.222;18.670;2023-06-04T06:49:06;100588.25;;;16.88;56.29
67052;BME280;53957;47.222;18.670;2023-06-04T06:52:09;100580.44;;;16.78;60.39
67052;BME280;53957;47.222;18.670;2023-06-04T06:55:12;100577.69;;;16.34;57.55
67052;BME280;53957;47.222;18.670;2023-06-04T06:58:15;100579.37;;;17.05;58.26
67052;BME280;53957;47.222;18.670;2023-06-04T07:01:18;100582.34;;;16.60;58.58
67052;BME280;53957;47.222;18.670;2023-06-04T07:04:21;100580.34;;;16.92;57.19
67052;BME280;53957;47.222;18.670;2023-06-04T07:07:25;100588.63;;;16.37;61.40
67052;BME280;53957;47.222;18.670;2023-06-04T07:10:28;100588.75;;;17.16;59.95
67052;BME280;53957;47.222;18.670;2023-06-04T07:13:32;100581.62;;;16.94;59.73
67052;BME280;53957;47.222;18.670;2023-06-04T07:16:37;100588.22;;;17.58;57.39
67052;BME280;53957;47.222;18.670;2023-06-04T07:19:40;100598.09;;;17.36;55.00
67052;BME280;53957;47.222;18.670;2023-06-04T07:22:43;100586.66;;;17.48;53.79
67052;BME280;53957;47.222;18.670;2023-06-04T07:25:46;100582.00;;;18.23;53.79
67052;BME280;53957;47.222;18.670;2023-06-04T07:28:49;100588.34;;;17.79;53.88
67052;BME280;53957;47.222;18.670;2023-06-04T07:31:52;100584.03;;;17.78;53.08
67052;BME280;53957;47.222;18.670;2023-06-04T07:34:55;100584.94;;;17.91;51.39
67052;BME280;53957;47.222;18.670;2023-06-04T07:37:58;100588.75;;;17.25;54.79
67052;BME280;53957;47.222;18.670;2023-06-04T07:41:01;100587.13;;;17.50;55.40
67052;BME280;53957;47.222;18.670;2023-06-04T07:44:03;100591.75;;;17.32;54.31
67052;BME280;53957;47.222;18.670;2023-06-04T07:47:07;100586.81;;;17.52;55.57
67052;BME280;53957;47.222;18.670;2023-06-04T07:50:10;100592.34;;;17.55;56.00
67052;BME280;53957;47.222;18.670;2023-06-04T07:53:13;100589.16;;;17.62;55.54
67052;BME280;53957;47.222;18.670;2023-06-04T07:56:18;100600.28;;;17.61;55.73
67052;BME280;53957;47.222;18.670;2023-06-04T07:59:22;100596.37;;;17.05;57.61
67052;BME280;53957;47.222;18.670;2023-06-04T08:02:26;100600.00;;;17.01;57.07
67052;BME280;53957;47.222;18.670;2023-06-04T08:05:30;100593.63;;;17.58;57.91
67052;BME280;53957;47.222;18.670;2023-06-04T08:08:35;100600.13;;;17.39;56.54
67052;BME280;53957;47.222;18.670;2023-06-04T08:11:40;100607.94;;;17.32;60.52
67052;BME280;53957;47.222;18.670;2023-06-04T08:14:43;100610.63;;;17.32;64.27
67052;BME280;53957;47.222;18.670;2023-06-04T08:17:46;100609.66;;;17.28;62.57
67052;BME280;53957;47.222;18.670;2023-06-04T08:20:50;100613.78;;;17.08;66.19
67052;BME280;53957;47.222;18.670;2023-06-04T08:23:55;100617.09;;;16.96;65.43
67052;BME280;53957;47.222;18.670;2023-06-04T08:26:59;100608.41;;;16.99;66.18
67052;BME280;53957;47.222;18.670;2023-06-04T08:30:04;100604.53;;;16.83;72.37
67052;BME280;53957;47.222;18.670;2023-06-04T08:33:08;100605.69;;;16.90;71.43
67052;BME280;53957;47.222;18.670;2023-06-04T08:36:14;100596.19;;;17.19;64.44
67052;BME280;53957;47.222;18.670;2023-06-04T08:39:18;100593.47;;;16.84;73.80
67052;BME280;53957;47.222;18.670;2023-06-04T08:42:31;100603.00;;;16.99;69.74
67052;BME280;53957;47.222;18.670;2023-06-04T08:45:49;100607.53;;;16.64;75.81
67052;BME280;53957;47.222;18.670;2023-06-04T08:48:54;100616.28;;;16.69;73.55
67052;BME280;53957;47.222;18.670;2023-06-04T08:52:02;100603.75;;;16.91;80.45
67052;BME280;53957;47.222;18.670;2023-06-04T08:55:08;100599.31;;;16.86;84.65
67052;BME280;53957;47.222;18.670;2023-06-04T08:58:14;100602.81;;;16.78;83.77
67052;BME280;53957;47.222;18.670;2023-06-04T09:01:18;100595.56;;;17.14;80.96
67052;BME280;53957;47.222;18.670;2023-06-04T09:04:21;100589.84;;;16.89;79.80
67052;BME280;53957;47.222;18.670;2023-06-04T09:07:25;100603.34;;;17.24;75.59
67052;BME280;53957;47.222;18.670;2023-06-04T09:10:29;100591.44;;;17.16;81.23
67052;BME280;53957;47.222;18.670;2023-06-04T09:13:35;100596.81;;;17.34;75.00
67052;BME280;53957;47.222;18.670;2023-06-04T09:16:48;100593.00;;;17.44;77.08
67052;BME280;53957;47.222;18.670;2023-06-04T09:19:52;100590.22;;;17.79;69.94
67052;BME280;53957;47.222;18.670;2023-06-04T09:22:55;100594.16;;;17.99;60.75
67052;BME280;53957;47.222;18.670;2023-06-04T09:26:06;100592.34;;;17.64;66.09
67052;BME280;53957;47.222;18.670;2023-06-04T09:29:10;100595.59;;;17.96;65.10
67052;BME280;53957;47.222;18.670;2023-06-04T09:32:13;100597.09;;;18.15;58.71
67052;BME280;53957;47.222;18.670;2023-06-04T09:35:18;100596.34;;;18.06;58.80
67052;BME280;53957;47.222;18.670;2023-06-04T09:38:21;100606.16;;;18.49;55.44
67052;BME280;53957;47.222;18.670;2023-06-04T09:41:25;100597.63;;;18.38;61.02
67052;BME280;53957;47.222;18.670;2023-06-04T09:44:29;100601.47;;;18.28;55.70
67052;BME280;53957;47.222;18.670;2023-06-04T09:47:45;100600.25;;;18.77;57.64
67052;BME280;53957;47.222;18.670;2023-06-04T09:50:49;100602.75;;;18.61;59.15
67052;BME280;53957;47.222;18.670;2023-06-04T09:54:00;100605.09;;;18.41;62.45
67052;BME280;53957;47.222;18.670;2023-06-04T09:57:16;100612.97;;;18.76;60.00
67052;BME280;53957;47.222;18.670;2023-06-04T10:00:21;100612.19;;;18.76;59.19
67052;BME280;53957;47.222;18.670;2023-06-04T10:03:25;100611.34;;;18.84;53.43
67052;BME280;53957;47.222;18.670;2023-06-04T10:14:56;100612.91;;;18.85;53.27
67052;BME280;53957;47.222;18.670;2023-06-04T10:18:02;100608.16;;;18.61;59.20
67052;BME280;53957;47.222;18.670;2023-06-04T10:21:06;100596.19;;;19.13;53.58
67052;BME280;53957;47.222;18.670;2023-06-04T10:24:12;100595.53;;;18.95;54.59
67052;BME280;53957;47.222;18.670;2023-06-04T10:27:17;100601.94;;;18.60;58.91
67052;BME280;53957;47.222;18.670;2023-06-04T10:30:21;100600.66;;;18.88;57.04
67052;BME280;53957;47.222;18.670;2023-06-04T10:33:23;100601.75;;;18.95;54.98
67052;BME280;53957;47.222;18.670;2023-06-04T10:36:27;100601.25;;;19.14;52.98
67052;BME280;53957;47.222;18.670;2023-06-04T10:39:32;100598.03;;;19.00;60.65
67052;BME280;53957;47.222;18.670;2023-06-04T10:42:42;100604.06;;;19.39;55.26
67052;BME280;53957;47.222;18.670;2023-06-04T10:45:45;100605.00;;;19.22;57.43
67052;BME280;53957;47.222;18.670;2023-06-04T10:48:50;100607.44;;;19.70;50.78
67052;BME280;53957;47.222;18.670;2023-06-04T10:51:56;100610.34;;;19.65;51.67
67052;BME280;53957;47.222;18.670;2023-06-04T10:55:04;100607.44;;;19.70;53.38
67052;BME280;53957;47.222;18.670;2023-06-04T10:58:07;100607.13;;;19.84;51.62
67052;BME280;53957;47.222;18.670;2023-06-04T11:01:10;100604.97;;;19.77;57.64
67052;BME280;53957;47.222;18.670;2023-06-04T11:04:22;100599.50;;;20.48;51.67
67052;BME280;53957;47.222;18.670;2023-06-04T11:07:27;100588.53;;;20.44;48.33
67052;BME280;53957;47.222;18.670;2023-06-04T11:10:34;100595.31;;;20.38;57.74
67052;BME280;53957;47.222;18.670;2023-06-04T11:13:38;100590.88;;;21.11;50.49
67052;BME280;53957;47.222;18.670;2023-06-04T11:16:41;100593.13;;;20.93;52.58
67052;BME280;53957;47.222;18.670;2023-06-04T11:19:44;100585.44;;;21.68;53.10
67052;BME280;53957;47.222;18.670;2023-06-04T11:22:58;100593.31;;;22.05;45.95
67052;BME280;53957;47.222;18.670;2023-06-04T11:26:02;100592.53;;;21.73;45.37
67052;BME280;53957;47.222;18.670;2023-06-04T11:29:11;100591.94;;;21.79;48.20
67052;BME280;53957;47.222;18.670;2023-06-04T11:32:24;100585.34;;;22.12;51.08
67052;BME280;53957;47.222;18.670;2023-06-04T11:35:27;100581.66;;;22.20;51.01
67052;BME280;53957;47.222;18.670;2023-06-04T11:38:30;100584.28;;;22.17;50.51
67052;BME280;53957;47.222;18.670;2023-06-04T11:41:34;100589.69;;;22.33;46.75
67052;BME280;53957;47.222;18.670;2023-06-04T11:44:38;100584.91;;;22.42;45.98
67052;BME280;53957;47.222;18.670;2023-06-04T11:47:45;100587.09;;;22.92;46.78
67052;BME280;53957;47.222;18.670;2023-06-04T11:50:48;100584.09;;;22.97;43.99
67052;BME280;53957;47.222;18.670;2023-06-04T11:53:51;100584.91;;;22.62;39.58
67052;BME280;53957;47.222;18.670;2023-06-04T11:56:55;100573.84;;;22.71;40.44
67052;BME280;53957;47.222;18.670;2023-06-04T11:59:58;100576.69;;;22.78;39.59
67052;BME280;53957;47.222;18.670;2023-06-04T12:03:02;100592.69;;;23.19;34.66
67052;BME280;53957;47.222;18.670;2023-06-04T12:06:13;100585.38;;;22.83;36.96
67052;BME280;53957;47.222;18.670;2023-06-04T12:09:23;100585.50;;;22.91;39.40
67052;BME280;53957;47.222;18.670;2023-06-04T12:12:26;100580.94;;;22.40;36.92
67052;BME280;53957;47.222;18.670;2023-06-04T12:15:29;100572.50;;;22.80;40.88
67052;BME280;53957;47.222;18.670;2023-06-04T12:18:32;100575.06;;;22.73;39.86
67052;BME280;53957;47.222;18.670;2023-06-04T12:21:36;100570.41;;;22.74;37.26
67052;BME280;53957;47.222;18.670;2023-06-04T12:24:49;100568.47;;;22.74;39.49
67052;BME280;53957;47.222;18.670;2023-06-04T12:27:56;100564.75;;;22.82;40.23
67052;BME280;53957;47.222;18.670;2023-06-04T12:30:59;100565.75;;;22.74;37.54
67052;BME280;53957;47.222;18.670;2023-06-04T12:34:02;100556.56;;;22.43;40.76
67052;BME280;53957;47.222;18.670;2023-06-04T12:37:05;100549.69;;;22.49;43.27
67052;BME280;53957;47.222;18.670;2023-06-04T12:40:09;100558.47;;;22.78;41.58
67052;BME280;53957;47.222;18.670;2023-06-04T12:43:12;100551.81;;;22.95;40.74
67052;BME280;53957;47.222;18.670;2023-06-04T12:46:15;100553.31;;;22.73;40.59
67052;BME280;53957;47.222;18.670;2023-06-04T12:49:18;100543.28;;;22.58;43.44
67052;BME280;53957;47.222;18.670;2023-06-04T12:52:21;100549.34;;;22.90;40.64
67052;BME280;53957;47.222;18.670;2023-06-04T12:55:25;100543.72;;;22.99;38.11
67052;BME280;53957;47.222;18.670;2023-06-04T12:58:29;100546.72;;;22.74;39.10
67052;BME280;53957;47.222;18.670;2023-06-04T13:01:33;100546.56;;;23.06;40.28
67052;BME280;53957;47.222;18.670;2023-06-04T13:04:36;100543.50;;;23.08;38.09
67052;BME280;53957;47.222;18.670;2023-06-04T13:07:39;100542.66;;;22.64;39.26
67052;BME280;53957;47.222;18.670;2023-06-04T13:10:42;100544.12;;;23.01;43.08
67052;BME280;53957;47.222;18.670;2023-06-04T13:13:45;100533.81;;;23.30;42.37
67052;BME280;53957;47.222;18.670;2023-06-04T13:16:48;100538.25;;;23.19;40.94
67052;BME280;53957;47.222;18.670;2023-06-04T13:19:55;100537.56;;;23.02;40.89
67052;BME280;53957;47.222;18.670;2023-06-04T13:22:58;100536.03;;;23.05;40.29
67052;BME280;53957;47.222;18.670;2023-06-04T13:26:01;100531.63;;;22.57;41.11
67052;BME280;53957;47.222;18.670;2023-06-04T13:29:04;100531.50;;;23.32;39.41
67052;BME280;53957;47.222;18.670;2023-06-04T13:32:07;100528.59;;;23.44;42.55
67052;BME280;53957;47.222;18.670;2023-06-04T13:35:10;100531.25;;;23.64;39.62
67052;BME280;53957;47.222;18.670;2023-06-04T13:38:13;100511.44;;;23.40;37.39
67052;BME280;53957;47.222;18.670;2023-06-04T13:41:16;100519.78;;;23.28;40.07
67052;BME280;53957;47.222;18.670;2023-06-04T13:44:21;100526.50;;;23.14;41.09
67052;BME280;53957;47.222;18.670;2023-06-04T13:47:28;100516.00;;;22.93;39.76
67052;BME280;53957;47.222;18.670;2023-06-04T13:50:32;100510.34;;;23.02;44.51
67052;BME280;53957;47.222;18.670;2023-06-04T13:53:35;100507.03;;;23.12;38.95
67052;BME280;53957;47.222;18.670;2023-06-04T13:56:38;100504.16;;;23.25;38.07
67052;BME280;53957;47.222;18.670;2023-06-04T13:59:41;100510.16;;;23.34;40.80
67052;BME280;53957;47.222;18.670;2023-06-04T14:02:45;100501.81;;;23.46;42.86
67052;BME280;53957;47.222;18.670;2023-06-04T14:05:48;100511.81;;;23.62;40.48
67052;BME280;53957;47.222;18.670;2023-06-04T14:08:51;100514.81;;;23.57;41.99
67052;BME280;53957;47.222;18.670;2023-06-04T14:11:55;100511.91;;;23.69;40.54
67052;BME280;53957;47.222;18.670;2023-06-04T14:14:58;100512.41;;;23.52;43.02
67052;BME280;53957;47.222;18.670;2023-06-04T14:18:01;100503.81;;;23.26;42.83
67052;BME280;53957;47.222;18.670;2023-06-04T14:21:04;100500.03;;;23.11;44.68
67052;BME280;53957;47.222;18.670;2023-06-04T14:24:08;100500.06;;;22.52;47.37
67052;BME280;53957;47.222;18.670;2023-06-04T15:46:59;100426.34;;;21.99;50.80
67052;BME280;53957;47.222;18.670;2023-06-04T15:50:03;100422.63;;;21.71;52.30
67052;BME280;53957;47.222;18.670;2023-06-04T15:53:06;100412.88;;;21.67;53.69
67052;BME280;53957;47.222;18.670;2023-06-04T15:56:09;100414.41;;;21.68;54.03
67052;BME280;53957;47.222;18.670;2023-06-04T15:59:12;100419.84;;;21.68;53.52
67052;BME280;53957;47.222;18.670;2023-06-04T16:02:15;100414.84;;;21.70;54.06
67052;BME280;53957;47.222;18.670;2023-06-04T16:05:18;100409.97;;;21.60;53.92
67052;BME280;53957;47.222;18.670;2023-06-04T16:08:21;100418.88;;;21.44;54.84
67052;BME280;53957;47.222;18.670;2023-06-04T16:11:24;100412.25;;;21.26;57.45
67052;BME280;53957;47.222;18.670;2023-06-04T16:14:28;100421.34;;;21.17;59.79
67052;BME280;53957;47.222;18.670;2023-06-04T16:17:31;100412.88;;;21.03;62.02
67052;BME280;53957;47.222;18.670;2023-06-04T16:20:34;100420.69;;;20.76;61.58
67052;BME280;53957;47.222;18.670;2023-06-04T16:23:37;100419.75;;;20.56;64.04
67052;BME280;53957;47.222;18.670;2023-06-04T16:26:40;100419.75;;;20.56;63.88
67052;BME280;53957;47.222;18.670;2023-06-04T16:29:43;100419.59;;;20.36;63.55
67052;BME280;53957;47.222;18.670;2023-06-04T16:32:46;100421.28;;;20.41;65.29
67052;BME280;53957;47.222;18.670;2023-06-04T16:35:49;100422.97;;;20.33;63.56
67052;BME280;53957;47.222;18.670;2023-06-04T16:38:52;100420.03;;;20.38;62.25
67052;BME280;53957;47.222;18.670;2023-06-04T16:41:56;100410.44;;;20.41;63.92
67052;BME280;53957;47.222;18.670;2023-06-04T16:45:03;100411.47;;;20.36;62.02
67052;BME280;53957;47.222;18.670;2023-06-04T16:48:06;100408.09;;;20.27;64.74
67052;BME280;53957;47.222;18.670;2023-06-04T16:51:09;100410.00;;;20.39;61.83
67052;BME280;53957;47.222;18.670;2023-06-04T16:54:13;100421.50;;;20.36;65.04
67052;BME280;53957;47.222;18.670;2023-06-04T16:57:16;100414.31;;;20.27;65.82
67052;BME280;53957;47.222;18.670;2023-06-04T17:00:21;100413.41;;;20.23;65.73
67052;BME280;53957;47.222;18.670;2023-06-04T17:03:28;100408.16;;;20.02;67.40
67052;BME280;53957;47.222;18.670;2023-06-04T17:06:31;100414.31;;;20.27;67.04
67052;BME280;53957;47.222;18.670;2023-06-04T17:09:34;100419.91;;;20.06;67.45
67052;BME280;53957;47.222;18.670;2023-06-04T17:12:37;100418.12;;;19.98;67.41
67052;BME280;53957;47.222;18.670;2023-06-04T17:15:40;100409.66;;;19.75;69.32
67052;BME280;53957;47.222;18.670;2023-06-04T17:18:43;100411.72;;;19.90;70.15
67052;BME280;53957;47.222;18.670;2023-06-04T17:21:46;100415.97;;;19.79;71.21
67052;BME280;53957;47.222;18.670;2023-06-04T17:24:50;100428.72;;;19.78;70.79
67052;BME280;53957;47.222;18.670;2023-06-04T17:27:53;100417.53;;;19.80;74.03
67052;BME280;53957;47.222;18.670;2023-06-04T17:30:57;100425.91;;;19.62;74.63
67052;BME280;53957;47.222;18.670;2023-06-04T17:34:00;100427.84;;;19.62;74.07
67052;BME280;53957;47.222;18.670;2023-06-04T17:37:03;100440.56;;;19.61;75.11
67052;BME280;53957;47.222;18.670;2023-06-04T17:40:06;100431.78;;;19.40;73.98
67052;BME280;53957;47.222;18.670;2023-06-04T17:43:10;100431.97;;;19.47;76.05
67052;BME280;53957;47.222;18.670;2023-06-04T17:46:13;100435.12;;;19.24;76.21
67052;BME280;53957;47.222;18.670;2023-06-04T17:49:16;100443.56;;;19.23;77.00
67052;BME280;53957;47.222;18.670;2023-06-04T17:52:19;100436.22;;;19.11;79.14
67052;BME280;53957;47.222;18.670;2023-06-04T17:55:26;100433.09;;;19.09;78.66
67052;BME280;53957;47.222;18.670;2023-06-04T17:58:29;100436.81;;;18.83;78.32
67052;BME280;53957;47.222;18.670;2023-06-04T18:01:36;100436.75;;;18.92;77.67
67052;BME280;53957;47.222;18.670;2023-06-04T18:04:40;100435.22;;;18.82;78.62
67052;BME280;53957;47.222;18.670;2023-06-04T18:07:43;100442.31;;;18.74;79.48
67052;BME280;53957;47.222;18.670;2023-06-04T18:10:48;100447.25;;;18.51;80.71
67052;BME280;53957;47.222;18.670;2023-06-04T18:13:51;100451.09;;;18.50;81.61
67052;BME280;53957;47.222;18.670;2023-06-04T18:16:55;100451.56;;;18.52;82.85
67052;BME280;53957;47.222;18.670;2023-06-04T18:19:58;100458.44;;;18.41;82.89
67052;BME280;53957;47.222;18.670;2023-06-04T18:23:02;100456.94;;;18.52;80.99
67052;BME280;53957;47.222;18.670;2023-06-04T18:26:07;100468.00;;;18.59;79.41
67052;BME280;53957;47.222;18.670;2023-06-04T18:29:11;100452.97;;;18.28;83.48
67052;BME280;53957;47.222;18.670;2023-06-04T18:32:15;100455.69;;;18.28;83.02
67052;BME280;53957;47.222;18.670;2023-06-04T18:35:19;100456.47;;;18.08;84.66
67052;BME280;53957;47.222;18.670;2023-06-04T18:38:22;100461.63;;;18.22;82.12
67052;BME280;53957;47.222;18.670;2023-06-04T18:41:26;100460.22;;;18.15;83.10
67052;BME280;53957;47.222;18.670;2023-06-04T18:44:29;100461.88;;;18.08;84.25
67052;BME280;53957;47.222;18.670;2023-06-04T19:50:26;100488.53;;;16.35;100.00
67052;BME280;53957;47.222;18.670;2023-06-04T19:53:30;100493.59;;;16.28;100.00
67052;BME280;53957;47.222;18.670;2023-06-04T19:56:33;100486.31;;;16.20;100.00
67052;BME280;53957;47.222;18.670;2023-06-04T19:59:40;100493.09;;;16.17;100.00
67052;BME280;53957;47.222;18.670;2023-06-04T20:02:46;100492.81;;;16.19;100.00
67052;BME280;53957;47.222;18.670;2023-06-04T20:05:49;100489.78;;;16.12;100.00
67052;BME280;53957;47.222;18.670;2023-06-04T20:08:52;100486.75;;;16.04;100.00
67052;BME280;53957;47.222;18.670;2023-06-04T20:11:55;100485.47;;;16.02;100.00
67052;BME280;53957;47.222;18.670;2023-06-04T20:14:58;100489.09;;;15.97;100.00
67052;BME280;53957;47.222;18.670;2023-06-04T20:18:01;100487.41;;;16.10;100.00
67052;BME280;53957;47.222;18.670;2023-06-04T20:21:05;100495.94;;;16.12;100.00
67052;BME280;53957;47.222;18.670;2023-06-04T20:24:08;100498.91;;;15.93;100.00
67052;BME280;53957;47.222;18.670;2023-06-04T20:27:11;100495.97;;;15.81;100.00
67052;BME280;53957;47.222;18.670;2023-06-04T20:30:15;100489.91;;;15.66;100.00
67052;BME280;53957;47.222;18.670;2023-06-04T20:33:18;100492.97;;;15.51;100.00
67052;BME280;53957;47.222;18.670;2023-06-04T20:36:24;100491.06;;;15.42;100.00
67052;BME280;53957;47.222;18.670;2023-06-04T20:39:29;100483.97;;;15.46;100.00
67052;BME280;53957;47.222;18.670;2023-06-04T20:42:40;100498.13;;;15.61;100.00
67052;BME280;53957;47.222;18.670;2023-06-04T20:45:43;100489.59;;;15.68;100.00
67052;BME280;53957;47.222;18.670;2023-06-04T20:48:46;100489.19;;;15.52;100.00
67052;BME280;53957;47.222;18.670;2023-06-04T20:51:49;100488.63;;;15.32;100.00
67052;BME280;53957;47.222;18.670;2023-06-04T20:54:52;100485.34;;;15.35;100.00
67052;BME280;53957;47.222;18.670;2023-06-04T20:57:56;100481.47;;;15.19;100.00
67052;BME280;53957;47.222;18.670;2023-06-04T21:00:59;100481.00;;;15.25;100.00
67052;BME280;53957;47.222;18.670;2023-06-04T21:04:02;100482.38;;;15.14;100.00
67052;BME280;53957;47.222;18.670;2023-06-04T21:07:06;100480.16;;;14.93;100.00
67052;BME280;53957;47.222;18.670;2023-06-04T21:10:09;100480.41;;;15.06;100.00
67052;BME280;53957;47.222;18.670;2023-06-04T21:13:12;100478.22;;;14.85;100.00
67052;BME280;53957;47.222;18.670;2023-06-04T21:16:15;100476.66;;;14.84;100.00
67052;BME280;53957;47.222;18.670;2023-06-04T21:19:18;100483.44;;;14.68;100.00
67052;BME280;53957;47.222;18.670;2023-06-04T21:22:21;100478.72;;;14.87;100.00
67052;BME280;53957;47.222;18.670;2023-06-04T21:25:24;100485.66;;;14.88;100.00
67052;BME280;53957;47.222;18.670;2023-06-04T21:28:27;100485.53;;;14.93;100.00
67052;BME280;53957;47.222;18.670;2023-06-04T21:31:30;100482.03;;;14.84;100.00
67052;BME280;53957;47.222;18.670;2023-06-04T21:34:33;100489.75;;;14.86;100.00
67052;BME280;53957;47.222;18.670;2023-06-04T21:37:36;100488.84;;;15.13;100.00
67052;BME280;53957;47.222;18.670;2023-06-04T21:40:39;100495.25;;;15.03;100.00
67052;BME280;53957;47.222;18.670;2023-06-04T21:43:42;100491.34;;;14.87;100.00
67052;BME280;53957;47.222;18.670;2023-06-04T21:46:45;100498.37;;;14.60;100.00
67052;BME280;53957;47.222;18.670;2023-06-04T21:49:49;100500.53;;;14.58;100.00
67052;BME280;53957;47.222;18.670;2023-06-04T21:52:51;100510.31;;;14.54;100.00
67052;BME280;53957;47.222;18.670;2023-06-04T21:55:56;100499.28;;;14.92;100.00
67052;BME280;53957;47.222;18.670;2023-06-04T21:58:59;100507.63;;;14.54;100.00
67052;BME280;53957;47.222;18.670;2023-06-04T22:02:02;100507.87;;;14.80;100.00
67052;BME280;53957;47.222;18.670;2023-06-04T22:05:06;100505.75;;;14.40;100.00
67052;BME280;53957;47.222;18.670;2023-06-04T22:08:09;100504.56;;;14.46;100.00
67052;BME280;53957;47.222;18.670;2023-06-04T22:11:12;100504.91;;;14.31;100.00
67052;BME280;53957;47.222;18.670;2023-06-04T22:14:15;100506.66;;;14.49;100.00
67052;BME280;53957;47.222;18.670;2023-06-04T22:17:18;100505.53;;;14.50;100.00
67052;BME280;53957;47.222;18.670;2023-06-04T22:20:21;100513.19;;;14.57;100.00
67052;BME280;53957;47.222;18.670;2023-06-04T22:23:24;100511.41;;;14.53;100.00
67052;BME280;53957;47.222;18.670;2023-06-04T22:26:27;100511.28;;;14.58;100.00
67052;BME280;53957;47.222;18.670;2023-06-04T22:29:40;100522.13;;;14.53;100.00
67052;BME280;53957;47.222;18.670;2023-06-04T22:32:43;100518.47;;;14.48;100.00
67052;BME280;53957;47.222;18.670;2023-06-04T22:35:47;100516.06;;;14.47;100.00
67052;BME280;53957;47.222;18.670;2023-06-04T22:38:50;100512.88;;;14.59;100.00
67052;BME280;53957;47.222;18.670;2023-06-04T22:41:53;100505.94;;;14.72;100.00
67052;BME280;53957;47.222;18.670;2023-06-04T22:44:55;100506.53;;;14.55;100.00
67052;BME280;53957;47.222;18.670;2023-06-04T22:47:58;100498.88;;;14.48;100.00
